createdAt,value
2023-02-19T00:00:31.840Z,1016.43
2023-02-19T00:01:31.826Z,1016.53
2023-02-19T00:02:31.816Z,1016.47
2023-02-19T00:03:31.847Z,1016.50
2023-02-19T00:04:31.815Z,1016.50
2023-02-19T00:05:31.751Z,1016.50
2023-02-19T00:06:31.771Z,1016.47
2023-02-19T00:07:31.744Z,1016.55
2023-02-19T00:08:31.726Z,1016.48
2023-02-19T00:09:31.741Z,1016.47
2023-02-19T00:10:31.684Z,1016.50
2023-02-19T00:11:31.708Z,1016.49
2023-02-19T00:12:31.653Z,1016.53
2023-02-19T00:13:31.631Z,1016.52
2023-02-19T00:14:31.658Z,1016.51
2023-02-19T00:15:31.668Z,1016.49
2023-02-19T00:16:31.587Z,1016.50
2023-02-19T00:17:31.588Z,1016.51
2023-02-19T00:18:31.605Z,1016.47
2023-02-19T00:19:31.573Z,1016.46
2023-02-19T00:20:31.538Z,1016.47
2023-02-19T00:21:31.573Z,1016.44
2023-02-19T00:22:31.508Z,1016.46
2023-02-19T00:23:33.136Z,1016.47
2023-02-19T00:24:41.328Z,1016.41
2023-02-19T00:25:31.494Z,1016.35
2023-02-19T00:26:31.445Z,1016.41
2023-02-19T00:27:31.412Z,1016.36
2023-02-19T00:28:31.414Z,1016.40
2023-02-19T00:29:31.415Z,1016.35
2023-02-19T00:30:31.419Z,1016.37
2023-02-19T00:31:33.002Z,1016.35
2023-02-19T00:32:31.367Z,1016.32
2023-02-19T00:33:31.340Z,1016.35
2023-02-19T00:34:31.345Z,1016.30
2023-02-19T00:35:31.375Z,1016.29
2023-02-19T00:36:31.362Z,1016.30
2023-02-19T00:37:31.291Z,1016.33
2023-02-19T00:38:31.281Z,1016.32
2023-02-19T00:39:31.281Z,1016.31
2023-02-19T00:40:31.281Z,1016.27
2023-02-19T00:41:31.264Z,1016.25
2023-02-19T00:42:31.268Z,1016.27
2023-02-19T00:43:31.214Z,1016.25
2023-02-19T00:44:31.221Z,1016.30
2023-02-19T00:45:31.184Z,1016.26
2023-02-19T00:46:31.205Z,1016.31
2023-02-19T00:47:31.189Z,1016.28
2023-02-19T00:48:31.176Z,1016.26
2023-02-19T00:49:31.122Z,1016.27
2023-02-19T00:50:31.155Z,1016.28
2023-02-19T00:51:31.107Z,1016.26
2023-02-19T00:52:31.090Z,1016.26
2023-02-19T00:53:31.104Z,1016.26
2023-02-19T00:54:31.082Z,1016.22
2023-02-19T00:55:31.036Z,1016.29
2023-02-19T00:56:31.095Z,1016.27
2023-02-19T00:57:31.039Z,1016.28
2023-02-19T00:58:31.004Z,1016.26
2023-02-19T00:59:31.012Z,1016.27
2023-02-19T01:00:30.981Z,1016.22
2023-02-19T01:01:30.977Z,1016.22
2023-02-19T01:02:30.960Z,1016.23
2023-02-19T01:03:30.960Z,1016.18
2023-02-19T01:04:30.974Z,1016.19
2023-02-19T01:05:30.909Z,1016.18
2023-02-19T01:06:30.904Z,1016.18
2023-02-19T01:07:30.888Z,1016.22
2023-02-19T01:08:30.880Z,1016.19
2023-02-19T01:09:30.849Z,1016.17
2023-02-19T01:10:30.866Z,1016.23
2023-02-19T01:11:30.823Z,1016.19
2023-02-19T01:12:30.818Z,1016.21
2023-02-19T01:13:30.852Z,1016.23
2023-02-19T01:14:30.834Z,1016.25
2023-02-19T01:15:30.766Z,1016.21
2023-02-19T01:16:30.779Z,1016.20
2023-02-19T01:17:30.763Z,1016.19
2023-02-19T01:18:30.748Z,1016.18
2023-02-19T01:19:30.710Z,1016.21
2023-02-19T01:20:30.712Z,1016.19
2023-02-19T01:21:30.728Z,1016.18
2023-02-19T01:22:30.668Z,1016.12
2023-02-19T01:23:30.693Z,1016.17
2023-02-19T01:24:30.635Z,1016.22
2023-02-19T01:25:30.640Z,1016.17
2023-02-19T01:26:30.634Z,1016.20
2023-02-19T01:27:30.611Z,1016.15
2023-02-19T01:28:30.614Z,1016.19
2023-02-19T01:29:30.588Z,1016.22
2023-02-19T01:30:30.581Z,1016.19
2023-02-19T01:31:30.619Z,1016.25
2023-02-19T01:32:30.563Z,1016.18
2023-02-19T01:33:30.523Z,1016.23
2023-02-19T01:34:30.525Z,1016.19
2023-02-19T01:35:30.506Z,1016.14
2023-02-19T01:36:30.498Z,1016.19
2023-02-19T01:37:30.468Z,1016.15
2023-02-19T01:38:30.444Z,1016.18
2023-02-19T01:39:30.446Z,1016.14
2023-02-19T01:40:30.444Z,1016.18
2023-02-19T01:41:30.413Z,1016.11
2023-02-19T01:42:30.441Z,1016.15
2023-02-19T01:43:30.390Z,1016.17
2023-02-19T01:44:30.440Z,1016.17
2023-02-19T01:45:30.366Z,1016.18
2023-02-19T01:46:30.398Z,1016.20
2023-02-19T01:47:30.342Z,1016.14
2023-02-19T01:48:30.312Z,1016.12
2023-02-19T01:49:30.328Z,1016.18
2023-02-19T01:50:30.288Z,1016.16
2023-02-19T01:51:30.299Z,1016.22
2023-02-19T01:52:30.278Z,1016.08
2023-02-19T01:53:30.242Z,1016.21
2023-02-19T01:54:37.918Z,1016.12
2023-02-19T01:55:30.224Z,1016.07
2023-02-19T01:56:37.725Z,1016.20
2023-02-19T01:57:38.934Z,1016.22
2023-02-19T01:58:37.708Z,1016.26
2023-02-19T01:59:37.786Z,1016.31
2023-02-19T02:00:30.163Z,1016.24
2023-02-19T02:01:37.684Z,1016.23
2023-02-19T02:02:30.160Z,1016.29
2023-02-19T02:03:30.137Z,1016.22
2023-02-19T02:04:30.091Z,1016.27
2023-02-19T02:05:30.116Z,1016.24
2023-02-19T02:06:30.097Z,1016.22
2023-02-19T02:07:30.071Z,1016.26
2023-02-19T02:08:30.060Z,1016.21
2023-02-19T02:09:30.077Z,1016.27
2023-02-19T02:10:30.026Z,1016.26
2023-02-19T02:11:30.046Z,1016.26
2023-02-19T02:12:30.004Z,1016.28
2023-02-19T02:13:30.001Z,1016.33
2023-02-19T02:14:29.998Z,1016.31
2023-02-19T02:15:29.967Z,1016.32
2023-02-19T02:16:29.972Z,1016.30
2023-02-19T02:17:29.942Z,1016.33
2023-02-19T02:18:29.922Z,1016.27
2023-02-19T02:19:29.926Z,1016.31
2023-02-19T02:20:29.883Z,1016.27
2023-02-19T02:21:29.895Z,1016.28
2023-02-19T02:22:29.875Z,1016.28
2023-02-19T02:23:29.852Z,1016.27
2023-02-19T02:24:29.833Z,1016.32
2023-02-19T02:25:29.831Z,1016.34
2023-02-19T02:26:29.817Z,1016.28
2023-02-19T02:27:29.813Z,1016.20
2023-02-19T02:28:29.781Z,1016.22
2023-02-19T02:29:29.772Z,1016.28
2023-02-19T02:30:29.822Z,1016.25
2023-02-19T02:31:29.823Z,1016.32
2023-02-19T02:32:29.730Z,1016.28
2023-02-19T02:33:29.711Z,1016.28
2023-02-19T02:34:29.702Z,1016.32
2023-02-19T02:35:29.687Z,1016.28
2023-02-19T02:36:29.664Z,1016.29
2023-02-19T02:37:29.671Z,1016.22
2023-02-19T02:38:29.669Z,1016.22
2023-02-19T02:39:29.637Z,1016.28
2023-02-19T02:40:29.619Z,1016.29
2023-02-19T02:41:29.621Z,1016.31
2023-02-19T02:42:29.649Z,1016.26
2023-02-19T02:43:29.579Z,1016.25
2023-02-19T02:44:29.560Z,1016.26
2023-02-19T02:45:29.614Z,1016.24
2023-02-19T02:46:29.525Z,1016.30
2023-02-19T02:47:29.543Z,1016.28
2023-02-19T02:48:29.557Z,1016.27
2023-02-19T02:49:29.506Z,1016.25
2023-02-19T02:50:29.476Z,1016.27
2023-02-19T02:51:29.495Z,1016.33
2023-02-19T02:52:29.481Z,1016.23
2023-02-19T02:53:29.436Z,1016.17
2023-02-19T02:54:29.449Z,1016.28
2023-02-19T02:55:29.421Z,1016.29
2023-02-19T02:56:29.374Z,1016.24
2023-02-19T02:57:29.370Z,1016.28
2023-02-19T02:58:29.394Z,1016.28
2023-02-19T02:59:29.339Z,1016.32
2023-02-19T03:00:29.328Z,1016.37
2023-02-19T03:01:29.317Z,1016.34
2023-02-19T03:02:29.368Z,1016.32
2023-02-19T03:03:38.029Z,1016.32
2023-02-19T03:04:29.279Z,1016.36
2023-02-19T03:05:29.273Z,1016.32
2023-02-19T03:06:29.241Z,1016.35
2023-02-19T03:07:29.256Z,1016.32
2023-02-19T03:08:29.213Z,1016.32
2023-02-19T03:09:29.237Z,1016.42
2023-02-19T03:10:29.334Z,1016.37
2023-02-19T03:11:29.219Z,1016.41
2023-02-19T03:12:29.188Z,1016.38
2023-02-19T03:13:29.151Z,1016.39
2023-02-19T03:14:29.146Z,1016.39
2023-02-19T03:15:29.155Z,1016.41
2023-02-19T03:16:29.221Z,1016.41
2023-02-19T03:17:29.148Z,1016.40
2023-02-19T03:18:29.105Z,1016.47
2023-02-19T03:19:29.087Z,1016.48
2023-02-19T03:20:29.092Z,1016.47
2023-02-19T03:21:29.040Z,1016.49
2023-02-19T03:22:29.049Z,1016.55
2023-02-19T03:23:29.036Z,1016.53
2023-02-19T03:24:29.045Z,1016.55
2023-02-19T03:25:29.007Z,1016.57
2023-02-19T03:26:28.974Z,1016.55
2023-02-19T03:27:28.997Z,1016.63
2023-02-19T03:28:28.964Z,1016.62
2023-02-19T03:29:28.943Z,1016.63
2023-02-19T03:30:28.951Z,1016.63
2023-02-19T03:31:29.059Z,1016.61
2023-02-19T03:32:28.937Z,1016.69
2023-02-19T03:33:28.879Z,1016.67
2023-02-19T03:34:28.857Z,1016.58
2023-02-19T03:35:28.887Z,1016.61
2023-02-19T03:36:28.894Z,1016.64
2023-02-19T03:37:28.874Z,1016.65
2023-02-19T03:38:28.816Z,1016.67
2023-02-19T03:39:28.801Z,1016.64
2023-02-19T03:40:28.804Z,1016.67
2023-02-19T03:41:28.790Z,1016.61
2023-02-19T03:42:28.780Z,1016.70
2023-02-19T03:43:28.772Z,1016.64
2023-02-19T03:44:28.726Z,1016.75
2023-02-19T03:45:28.838Z,1016.70
2023-02-19T03:46:28.722Z,1016.70
2023-02-19T03:47:28.697Z,1016.71
2023-02-19T03:48:28.684Z,1016.73
2023-02-19T03:49:28.674Z,1016.73
2023-02-19T03:50:28.653Z,1016.77
2023-02-19T03:51:28.654Z,1016.84
2023-02-19T03:52:28.616Z,1016.85
2023-02-19T03:53:28.659Z,1016.79
2023-02-19T03:54:28.614Z,1016.83
2023-02-19T03:55:28.612Z,1016.85
2023-02-19T03:56:28.553Z,1016.87
2023-02-19T03:57:28.624Z,1016.88
2023-02-19T03:58:28.573Z,1016.88
2023-02-19T03:59:28.581Z,1016.91
2023-02-19T04:00:28.505Z,1016.94
2023-02-19T04:01:28.546Z,1016.96
2023-02-19T04:02:28.521Z,1016.97
2023-02-19T04:03:28.478Z,1017.02
2023-02-19T04:04:28.467Z,1016.99
2023-02-19T04:05:28.464Z,1016.98
2023-02-19T04:06:28.455Z,1017.03
2023-02-19T04:07:28.418Z,1017.01
2023-02-19T04:08:28.406Z,1017.05
2023-02-19T04:09:28.441Z,1017.00
2023-02-19T04:10:28.414Z,1016.97
2023-02-19T04:11:28.390Z,1017.02
2023-02-19T04:12:28.345Z,1017.05
2023-02-19T04:13:28.363Z,1017.08
2023-02-19T04:14:28.332Z,1017.09
2023-02-19T04:15:28.325Z,1017.10
2023-02-19T04:16:28.341Z,1017.13
2023-02-19T04:17:28.279Z,1017.18
2023-02-19T04:18:28.266Z,1017.18
2023-02-19T04:19:28.256Z,1017.21
2023-02-19T04:20:28.240Z,1017.21
2023-02-19T04:21:28.271Z,1017.25
2023-02-19T04:22:28.250Z,1017.26
2023-02-19T04:23:28.218Z,1017.22
2023-02-19T04:24:28.187Z,1017.23
2023-02-19T04:25:28.306Z,1017.25
2023-02-19T04:26:28.210Z,1017.31
2023-02-19T04:27:28.199Z,1017.33
2023-02-19T04:28:28.153Z,1017.34
2023-02-19T04:29:28.135Z,1017.31
2023-02-19T04:30:28.230Z,1017.37
2023-02-19T04:31:28.250Z,1017.32
2023-02-19T04:32:28.137Z,1017.36
2023-02-19T04:33:28.150Z,1017.44
2023-02-19T04:34:28.080Z,1017.42
2023-02-19T04:35:28.055Z,1017.42
2023-02-19T04:36:28.024Z,1017.39
2023-02-19T04:37:28.053Z,1017.43
2023-02-19T04:38:28.001Z,1017.43
2023-02-19T04:39:28.056Z,1017.34
2023-02-19T04:40:27.982Z,1017.44
2023-02-19T04:41:27.963Z,1017.43
2023-02-19T04:42:27.971Z,1017.43
2023-02-19T04:43:27.927Z,1017.50
2023-02-19T04:44:27.903Z,1017.41
2023-02-19T04:45:27.946Z,1017.41
2023-02-19T04:46:27.980Z,1017.41
2023-02-19T04:47:27.901Z,1017.41
2023-02-19T04:48:27.888Z,1017.36
2023-02-19T04:49:27.859Z,1017.43
2023-02-19T04:50:27.858Z,1017.53
2023-02-19T04:51:27.829Z,1017.49
2023-02-19T04:52:27.848Z,1017.53
2023-02-19T04:53:27.819Z,1017.51
2023-02-19T04:54:27.764Z,1017.56
2023-02-19T04:55:27.833Z,1017.55
2023-02-19T04:56:27.753Z,1017.56
2023-02-19T04:57:27.761Z,1017.57
2023-02-19T04:58:27.754Z,1017.60
2023-02-19T04:59:27.716Z,1017.53
2023-02-19T05:00:27.699Z,1017.60
2023-02-19T05:01:27.754Z,1017.63
2023-02-19T05:02:27.662Z,1017.56
2023-02-19T05:03:27.689Z,1017.61
2023-02-19T05:04:27.693Z,1017.64
2023-02-19T05:05:27.644Z,1017.64
2023-02-19T05:06:27.638Z,1017.60
2023-02-19T05:07:27.620Z,1017.68
2023-02-19T05:08:27.604Z,1017.70
2023-02-19T05:09:27.597Z,1017.73
2023-02-19T05:10:27.599Z,1017.79
2023-02-19T05:11:27.557Z,1017.69
2023-02-19T05:12:27.534Z,1017.75
2023-02-19T05:13:28.243Z,1017.74
2023-02-19T05:14:27.518Z,1017.78
2023-02-19T05:15:27.510Z,1017.83
2023-02-19T05:16:27.505Z,1017.78
2023-02-19T05:17:27.488Z,1017.81
2023-02-19T05:18:27.455Z,1017.89
2023-02-19T05:19:27.473Z,1017.88
2023-02-19T05:20:27.424Z,1017.85
2023-02-19T05:21:27.430Z,1017.80
2023-02-19T05:22:27.419Z,1017.86
2023-02-19T05:23:27.423Z,1017.91
2023-02-19T05:24:27.411Z,1017.90
2023-02-19T05:25:27.360Z,1017.94
2023-02-19T05:26:27.340Z,1017.92
2023-02-19T05:27:27.323Z,1017.98
2023-02-19T05:28:27.336Z,1018.07
2023-02-19T05:29:27.334Z,1017.99
2023-02-19T05:30:27.334Z,1018.01
2023-02-19T05:31:27.351Z,1018.07
2023-02-19T05:32:27.250Z,1018.04
2023-02-19T05:33:27.271Z,1018.00
2023-02-19T05:34:27.231Z,1018.05
2023-02-19T05:35:27.232Z,1018.08
2023-02-19T05:36:27.197Z,1018.11
2023-02-19T05:37:27.200Z,1018.14
2023-02-19T05:38:27.189Z,1018.10
2023-02-19T05:39:27.180Z,1018.17
2023-02-19T05:40:27.301Z,1018.15
2023-02-19T05:41:27.129Z,1018.13
2023-02-19T05:42:27.169Z,1018.18
2023-02-19T05:43:27.176Z,1018.15
2023-02-19T05:44:27.131Z,1018.14
2023-02-19T05:45:27.067Z,1018.17
2023-02-19T05:46:27.069Z,1018.18
2023-02-19T05:47:27.063Z,1018.23
2023-02-19T05:48:27.085Z,1018.16
2023-02-19T05:49:27.022Z,1018.21
2023-02-19T05:50:27.025Z,1018.23
2023-02-19T05:51:27.126Z,1018.18
2023-02-19T05:52:27.004Z,1018.19
2023-02-19T05:53:27.039Z,1018.20
2023-02-19T05:54:26.978Z,1018.28
2023-02-19T05:55:26.972Z,1018.18
2023-02-19T05:56:26.969Z,1018.20
2023-02-19T05:57:26.933Z,1018.25
2023-02-19T05:58:26.927Z,1018.29
2023-02-19T05:59:26.920Z,1018.32
2023-02-19T06:00:26.907Z,1018.31
2023-02-19T06:01:26.873Z,1018.30
2023-02-19T06:02:26.873Z,1018.28
2023-02-19T06:03:26.877Z,1018.33
2023-02-19T06:04:26.835Z,1018.25
2023-02-19T06:05:26.816Z,1018.33
2023-02-19T06:06:26.804Z,1018.29
2023-02-19T06:07:26.820Z,1018.34
2023-02-19T06:08:26.785Z,1018.36
2023-02-19T06:09:26.778Z,1018.33
2023-02-19T06:10:26.747Z,1018.31
2023-02-19T06:11:26.742Z,1018.34
2023-02-19T06:12:26.836Z,1018.33
2023-02-19T06:13:26.709Z,1018.31
2023-02-19T06:14:26.706Z,1018.37
2023-02-19T06:15:26.709Z,1018.29
2023-02-19T06:16:26.774Z,1018.32
2023-02-19T06:17:26.660Z,1018.40
2023-02-19T06:18:26.678Z,1018.39
2023-02-19T06:19:26.686Z,1018.39
2023-02-19T06:20:26.658Z,1018.40
2023-02-19T06:21:26.594Z,1018.37
2023-02-19T06:22:26.626Z,1018.41
2023-02-19T06:23:26.585Z,1018.45
2023-02-19T06:24:26.572Z,1018.44
2023-02-19T06:25:26.541Z,1018.49
2023-02-19T06:26:26.581Z,1018.56
2023-02-19T06:27:26.508Z,1018.51
2023-02-19T06:28:26.539Z,1018.57
2023-02-19T06:29:26.489Z,1018.58
2023-02-19T06:30:26.519Z,1018.56
2023-02-19T06:31:26.493Z,1018.62
2023-02-19T06:32:26.551Z,1018.60
2023-02-19T06:33:26.494Z,1018.62
2023-02-19T06:34:26.478Z,1018.63
2023-02-19T06:35:26.425Z,1018.67
2023-02-19T06:36:26.432Z,1018.60
2023-02-19T06:37:26.438Z,1018.64
2023-02-19T06:38:26.385Z,1018.62
2023-02-19T06:39:26.388Z,1018.59
2023-02-19T06:40:26.369Z,1018.68
2023-02-19T06:41:26.355Z,1018.67
2023-02-19T06:42:26.467Z,1018.60
2023-02-19T06:43:26.317Z,1018.72
2023-02-19T06:44:26.316Z,1018.71
2023-02-19T06:45:26.311Z,1018.70
2023-02-19T06:46:26.320Z,1018.74
2023-02-19T06:47:26.332Z,1018.74
2023-02-19T06:48:26.236Z,1018.81
2023-02-19T06:49:26.237Z,1018.82
2023-02-19T06:50:26.239Z,1018.81
2023-02-19T06:51:26.242Z,1018.85
2023-02-19T06:52:26.307Z,1018.97
2023-02-19T06:53:26.187Z,1018.94
2023-02-19T06:54:26.193Z,1019.00
2023-02-19T06:55:26.179Z,1018.98
2023-02-19T06:56:26.262Z,1018.98
2023-02-19T06:57:26.138Z,1019.00
2023-02-19T06:58:26.115Z,1019.07
2023-02-19T06:59:26.110Z,1019.04
2023-02-19T07:00:26.090Z,1019.08
2023-02-19T07:01:26.080Z,1019.16
2023-02-19T07:02:26.100Z,1019.21
2023-02-19T07:03:26.097Z,1019.18
2023-02-19T07:04:26.114Z,1019.11
2023-02-19T07:05:26.019Z,1019.18
2023-02-19T07:06:26.032Z,1019.24
2023-02-19T07:07:25.998Z,1019.26
2023-02-19T07:08:29.320Z,1019.23
2023-02-19T07:09:26.010Z,1019.22
2023-02-19T07:10:25.974Z,1019.30
2023-02-19T07:11:25.960Z,1019.28
2023-02-19T07:12:25.995Z,1019.30
2023-02-19T07:13:25.909Z,1019.32
2023-02-19T07:14:25.924Z,1019.31
2023-02-19T07:15:25.895Z,1019.36
2023-02-19T07:16:25.939Z,1019.34
2023-02-19T07:17:25.915Z,1019.38
2023-02-19T07:18:25.836Z,1019.42
2023-02-19T07:19:25.858Z,1019.46
2023-02-19T07:20:25.824Z,1019.48
2023-02-19T07:21:25.865Z,1019.41
2023-02-19T07:22:25.829Z,1019.50
2023-02-19T07:23:25.789Z,1019.50
2023-02-19T07:24:25.759Z,1019.54
2023-02-19T07:25:25.778Z,1019.53
2023-02-19T07:26:25.741Z,1019.61
2023-02-19T07:27:25.720Z,1019.62
2023-02-19T07:28:25.735Z,1019.66
2023-02-19T07:29:25.702Z,1019.65
2023-02-19T07:30:25.736Z,1019.74
2023-02-19T07:31:25.887Z,1019.71
2023-02-19T07:32:25.652Z,1019.79
2023-02-19T07:33:25.667Z,1019.71
2023-02-19T07:34:25.684Z,1019.76
2023-02-19T07:35:25.612Z,1019.78
2023-02-19T07:36:25.610Z,1019.74
2023-02-19T07:37:25.613Z,1019.73
2023-02-19T07:38:25.583Z,1019.71
2023-02-19T07:39:25.611Z,1019.74
2023-02-19T07:40:25.554Z,1019.74
2023-02-19T07:41:25.583Z,1019.78
2023-02-19T07:42:25.538Z,1019.78
2023-02-19T07:43:25.525Z,1019.78
2023-02-19T07:44:25.515Z,1019.84
2023-02-19T07:45:25.558Z,1019.86
2023-02-19T07:46:25.524Z,1019.94
2023-02-19T07:47:25.486Z,1019.85
2023-02-19T07:48:25.477Z,1019.93
2023-02-19T07:49:25.444Z,1019.93
2023-02-19T07:50:25.476Z,1019.92
2023-02-19T07:51:25.443Z,1019.89
2023-02-19T07:52:25.417Z,1019.86
2023-02-19T07:53:25.410Z,1019.87
2023-02-19T07:54:25.434Z,1019.90
2023-02-19T07:55:25.368Z,1019.91
2023-02-19T07:56:25.372Z,1019.92
2023-02-19T07:57:25.312Z,1019.92
2023-02-19T07:58:25.302Z,1019.94
2023-02-19T07:59:25.298Z,1019.99
2023-02-19T08:00:25.296Z,1020.00
2023-02-19T08:01:25.301Z,1020.02
2023-02-19T08:02:25.284Z,1020.00
2023-02-19T08:03:25.277Z,1020.08
2023-02-19T08:04:25.237Z,1019.98
2023-02-19T08:05:25.214Z,1020.09
2023-02-19T08:06:25.225Z,1020.05
2023-02-19T08:07:25.234Z,1020.09
2023-02-19T08:08:25.205Z,1020.19
2023-02-19T08:09:25.176Z,1020.24
2023-02-19T08:10:25.146Z,1020.30
2023-02-19T08:11:25.155Z,1020.31
2023-02-19T08:12:25.163Z,1020.30
2023-02-19T08:13:25.099Z,1020.25
2023-02-19T08:14:25.106Z,1020.12
2023-02-19T08:15:25.091Z,1020.23
2023-02-19T08:16:40.806Z,1020.08
2023-02-19T08:17:26.154Z,1020.19
2023-02-19T08:18:25.089Z,1020.23
2023-02-19T08:19:25.034Z,1020.21
2023-02-19T08:20:25.044Z,1020.27
2023-02-19T08:21:24.996Z,1020.25
2023-02-19T08:22:25.027Z,1020.26
2023-02-19T08:23:24.966Z,1020.22
2023-02-19T08:24:24.990Z,1020.30
2023-02-19T08:25:24.956Z,1020.29
2023-02-19T08:26:24.921Z,1020.32
2023-02-19T08:27:24.920Z,1020.30
2023-02-19T08:28:24.919Z,1020.33
2023-02-19T08:29:24.944Z,1020.30
2023-02-19T08:30:24.998Z,1020.29
2023-02-19T08:31:24.917Z,1020.33
2023-02-19T08:32:24.865Z,1020.30
2023-02-19T08:33:24.823Z,1020.31
2023-02-19T08:34:24.851Z,1020.30
2023-02-19T08:35:24.902Z,1020.30
2023-02-19T08:36:24.806Z,1020.32
2023-02-19T08:37:24.787Z,1020.38
2023-02-19T08:38:24.768Z,1020.33
2023-02-19T08:39:24.780Z,1020.36
2023-02-19T08:40:24.883Z,1020.33
2023-02-19T08:41:24.722Z,1020.37
2023-02-19T08:42:24.711Z,1020.37
2023-02-19T08:43:24.948Z,1020.42
2023-02-19T08:44:25.135Z,1020.42
2023-02-19T08:45:24.665Z,1020.37
2023-02-19T08:46:24.804Z,1020.37
2023-02-19T08:47:24.835Z,1020.39
2023-02-19T08:48:24.634Z,1020.37
2023-02-19T08:49:24.673Z,1020.41
2023-02-19T08:50:24.659Z,1020.42
2023-02-19T08:51:24.580Z,1020.43
2023-02-19T08:52:24.604Z,1020.30
2023-02-19T08:53:24.620Z,1020.41
2023-02-19T08:54:24.530Z,1020.48
2023-02-19T08:55:24.560Z,1020.41
2023-02-19T08:56:24.569Z,1020.47
2023-02-19T08:57:24.522Z,1020.53
2023-02-19T08:58:24.518Z,1020.51
2023-02-19T08:59:24.692Z,1020.47
2023-02-19T09:00:24.495Z,1020.49
2023-02-19T09:01:24.481Z,1020.50
2023-02-19T09:02:24.460Z,1020.50
2023-02-19T09:03:24.424Z,1020.51
2023-02-19T09:04:24.425Z,1020.51
2023-02-19T09:05:24.382Z,1020.56
2023-02-19T09:06:24.382Z,1020.61
2023-02-19T09:07:24.622Z,1020.65
2023-02-19T09:08:24.410Z,1020.68
2023-02-19T09:09:24.346Z,1020.71
2023-02-19T09:10:24.323Z,1020.80
2023-02-19T09:11:24.364Z,1020.76
2023-02-19T09:12:24.274Z,1020.81
2023-02-19T09:13:24.304Z,1020.82
2023-02-19T09:14:24.299Z,1020.81
2023-02-19T09:15:24.252Z,1020.84
2023-02-19T09:16:24.252Z,1020.84
2023-02-19T09:17:24.213Z,1020.89
2023-02-19T09:18:24.212Z,1020.92
2023-02-19T09:19:24.247Z,1020.90
2023-02-19T09:20:24.186Z,1020.87
2023-02-19T09:21:24.200Z,1020.91
2023-02-19T09:22:24.149Z,1020.89
2023-02-19T09:23:24.142Z,1020.88
2023-02-19T09:24:24.138Z,1020.83
2023-02-19T09:25:24.140Z,1020.92
2023-02-19T09:26:24.131Z,1020.97
2023-02-19T09:27:24.095Z,1021.03
2023-02-19T09:28:24.087Z,1021.10
2023-02-19T09:29:24.044Z,1021.11
2023-02-19T09:30:24.077Z,1021.12
2023-02-19T09:31:24.129Z,1021.17
2023-02-19T09:32:24.008Z,1021.08
2023-02-19T09:33:23.979Z,1021.06
2023-02-19T09:34:24.037Z,1021.06
2023-02-19T09:35:23.992Z,1021.00
2023-02-19T09:36:24.003Z,1020.98
2023-02-19T09:37:23.938Z,1021.01
2023-02-19T09:38:23.943Z,1020.96
2023-02-19T09:39:23.920Z,1020.95
2023-02-19T09:40:23.911Z,1021.02
2023-02-19T09:41:23.930Z,1021.04
2023-02-19T09:42:24.618Z,1021.07
2023-02-19T09:43:24.019Z,1021.11
2023-02-19T09:44:23.894Z,1021.11
2023-02-19T09:45:23.841Z,1021.05
2023-02-19T09:46:23.897Z,1021.15
2023-02-19T09:47:23.832Z,1021.10
2023-02-19T09:48:23.833Z,1021.07
2023-02-19T09:49:25.744Z,1021.18
2023-02-19T09:50:23.812Z,1021.20
2023-02-19T09:51:23.764Z,1021.21
2023-02-19T09:52:23.724Z,1021.17
2023-02-19T09:53:23.762Z,1021.24
2023-02-19T09:54:23.735Z,1021.14
2023-02-19T09:55:23.757Z,1021.19
2023-02-19T09:56:23.687Z,1021.17
2023-02-19T09:57:23.685Z,1021.25
2023-02-19T09:58:23.651Z,1021.33
2023-02-19T09:59:23.645Z,1021.30
2023-02-19T10:00:23.613Z,1021.31
2023-02-19T10:01:23.596Z,1021.37
2023-02-19T10:02:23.585Z,1021.36
2023-02-19T10:03:23.603Z,1021.44
2023-02-19T10:04:23.545Z,1021.49
2023-02-19T10:05:23.629Z,1021.50
2023-02-19T10:06:23.574Z,1021.49
2023-02-19T10:07:23.509Z,1021.53
2023-02-19T10:08:23.497Z,1021.56
2023-02-19T10:09:23.490Z,1021.62
2023-02-19T10:10:23.522Z,1021.62
2023-02-19T10:11:23.458Z,1021.60
2023-02-19T10:12:23.421Z,1021.69
2023-02-19T10:13:23.468Z,1021.70
2023-02-19T10:14:23.405Z,1021.67
2023-02-19T10:15:23.406Z,1021.66
2023-02-19T10:16:23.436Z,1021.63
2023-02-19T10:17:23.380Z,1021.62
2023-02-19T10:18:23.341Z,1021.64
2023-02-19T10:19:23.338Z,1021.63
2023-02-19T10:20:23.306Z,1021.68
2023-02-19T10:21:23.505Z,1021.71
2023-02-19T10:22:23.295Z,1021.80
2023-02-19T10:23:23.262Z,1021.80
2023-02-19T10:24:23.283Z,1021.81
2023-02-19T10:25:23.254Z,1021.87
2023-02-19T10:26:23.236Z,1021.88
2023-02-19T10:27:23.255Z,1021.94
2023-02-19T10:28:23.201Z,1021.99
2023-02-19T10:29:23.224Z,1022.03
2023-02-19T10:30:23.226Z,1022.01
2023-02-19T10:31:23.237Z,1022.02
2023-02-19T10:32:23.164Z,1021.99
2023-02-19T10:33:23.137Z,1021.99
2023-02-19T10:34:23.167Z,1022.01
2023-02-19T10:35:23.103Z,1022.01
2023-02-19T10:36:23.093Z,1022.02
2023-02-19T10:37:23.124Z,1022.05
2023-02-19T10:38:23.095Z,1022.03
2023-02-19T10:39:23.083Z,1022.04
2023-02-19T10:40:23.061Z,1022.08
2023-02-19T10:41:23.047Z,1022.07
2023-02-19T10:42:22.994Z,1022.08
2023-02-19T10:43:22.979Z,1022.09
2023-02-19T10:44:22.992Z,1022.06
2023-02-19T10:45:23.019Z,1022.08
2023-02-19T10:46:23.059Z,1022.11
2023-02-19T10:47:22.957Z,1022.06
2023-02-19T10:48:22.987Z,1022.05
2023-02-19T10:49:22.917Z,1022.11
2023-02-19T10:50:22.882Z,1022.11
2023-02-19T10:51:22.872Z,1022.10
2023-02-19T10:52:22.874Z,1022.10
2023-02-19T10:53:22.980Z,1022.07
2023-02-19T10:54:22.824Z,1022.01
2023-02-19T10:55:22.810Z,1022.06
2023-02-19T10:56:22.790Z,1022.12
2023-02-19T10:57:22.805Z,1022.14
2023-02-19T10:58:22.794Z,1022.19
2023-02-19T10:59:22.814Z,1022.20
2023-02-19T11:00:22.869Z,1022.25
2023-02-19T11:01:22.793Z,1022.25
2023-02-19T11:02:22.720Z,1022.26
2023-02-19T11:03:22.729Z,1022.29
2023-02-19T11:04:22.731Z,1022.28
2023-02-19T11:05:22.685Z,1022.26
2023-02-19T11:06:22.670Z,1022.29
2023-02-19T11:07:22.686Z,1022.27
2023-02-19T11:08:22.634Z,1022.30
2023-02-19T11:09:22.620Z,1022.28
2023-02-19T11:10:22.596Z,1022.31
2023-02-19T11:11:22.614Z,1022.30
2023-02-19T11:12:22.589Z,1022.30
2023-02-19T11:13:22.546Z,1022.27
2023-02-19T11:14:22.545Z,1022.23
2023-02-19T11:15:22.571Z,1022.26
2023-02-19T11:16:22.536Z,1022.26
2023-02-19T11:17:22.542Z,1022.23
2023-02-19T11:18:22.492Z,1022.27
2023-02-19T11:19:22.638Z,1022.30
2023-02-19T11:20:22.449Z,1022.35
2023-02-19T11:21:22.468Z,1022.35
2023-02-19T11:22:22.425Z,1022.35
2023-02-19T11:23:22.454Z,1022.38
2023-02-19T11:24:22.405Z,1022.34
2023-02-19T11:25:22.421Z,1022.39
2023-02-19T11:26:22.458Z,1022.31
2023-02-19T11:27:22.350Z,1022.28
2023-02-19T11:28:22.346Z,1022.23
2023-02-19T11:29:22.329Z,1022.24
2023-02-19T11:30:22.317Z,1022.18
2023-02-19T11:31:22.425Z,1022.21
2023-02-19T11:32:22.366Z,1022.25
2023-02-19T11:33:22.331Z,1022.26
2023-02-19T11:34:22.267Z,1022.30
2023-02-19T11:35:22.228Z,1022.24
2023-02-19T11:36:22.245Z,1022.29
2023-02-19T11:37:22.235Z,1022.17
2023-02-19T11:38:22.189Z,1022.21
2023-02-19T11:39:22.210Z,1022.19
2023-02-19T11:40:22.165Z,1022.21
2023-02-19T11:41:22.209Z,1022.29
2023-02-19T11:42:22.177Z,1022.23
2023-02-19T11:43:22.131Z,1022.20
2023-02-19T11:44:22.107Z,1022.17
2023-02-19T11:45:22.137Z,1022.17
2023-02-19T11:46:22.158Z,1022.08
2023-02-19T11:47:22.102Z,1022.10
2023-02-19T11:48:22.082Z,1022.10
2023-02-19T11:49:22.069Z,1022.16
2023-02-19T11:50:22.046Z,1022.17
2023-02-19T11:51:22.108Z,1022.14
2023-02-19T11:52:22.021Z,1022.08
2023-02-19T11:53:22.011Z,1022.16
2023-02-19T11:54:21.969Z,1022.10
2023-02-19T11:55:22.007Z,1022.08
2023-02-19T11:56:21.955Z,1022.12
2023-02-19T11:57:22.018Z,1022.11
2023-02-19T11:58:21.919Z,1022.04
2023-02-19T11:59:21.978Z,1022.09
2023-02-19T12:00:21.892Z,1022.08
2023-02-19T12:01:21.882Z,1022.06
2023-02-19T12:02:21.890Z,1022.08
2023-02-19T12:03:21.868Z,1022.11
2023-02-19T12:04:21.862Z,1022.17
2023-02-19T12:05:21.871Z,1022.22